Time;durP1;ratioP1;P1;durP2;ratioP2;P2;SDS_P1;SDS_P2;PMS_P1;PMS_P2;Temp;Humidity;BMP_temperature;BMP_pressure;BME280_temperature;BME280_humidity;BME280_pressure;Samples;Min_cycle;Max_cycle;Signal;HPM_P1;HPM_P2
2021/04/23 00:02:07;;;;;;;;;;;;;;;;;;;;;
2021/04/23 00:04:44;;;;;;;0.20;0.20;;;;;;;7.08;34.69;101432.63;6224064;23;20028;-75
2021/04/23 00:07:10;;;;;;;1.42;0.38;;;;;;;7.15;35.33;101433.41;6224530;23;20076;-75
2021/04/23 00:09:49;;;;;;;0.32;0.20;;;;;;;7.28;34.93;101445.25;6222985;23;20040;-76
2021/04/23 00:12:23;;;;;;;0.43;0.30;;;;;;;7.15;34.50;101436.13;6220864;23;20000;-75
2021/04/23 00:14:52;;;;;;;0.20;0.15;;;;;;;7.16;34.86;101447.84;6248605;23;20004;-75
2021/04/23 00:24:08;;;;;;;0.55;0.20;;;;;;;7.03;35.22;101431.59;6044530;23;20525;-78
2021/04/23 00:26:44;;;;;;;;;;;;;;;;;;;;;
2021/04/23 00:29:13;;;;;;;0.30;0.10;;;;;;;7.18;35.55;101466.66;6123879;23;20025;-77
2021/04/23 00:35:00;;;;;;;0.52;0.20;;;;;;;7.13;35.46;101448.28;6129293;23;20017;-76
2021/04/23 00:37:47;;;;;;;0.85;0.20;;;;;;;7.01;35.29;101428.25;6144666;22;20003;-75
2021/04/23 00:40:35;;;;;;;0.40;0.20;;;;;;;7.04;35.78;101444.13;6239401;22;20004;-76
2021/04/23 00:43:21;;;;;;;;;;;;;;;;;;;;;
2021/04/23 00:45:55;;;;;;;0.80;0.35;;;;;;;6.89;35.57;101453.44;6261431;22;20031;-76
2021/04/23 00:48:24;;;;;;;0.52;0.30;;;;;;;6.65;35.71;101425.09;6289676;22;19995;-75
2021/04/23 00:51:14;;;;;;;0.50;0.30;;;;;;;6.62;36.42;101430.94;6267416;22;20041;-76
2021/04/23 00:53:52;;;;;;;0.40;0.38;;;;;;;6.71;37.31;101445.97;6256082;22;20065;-75
2021/04/23 00:56:31;;;;;;;0.43;0.32;;;;;;;6.51;36.56;101437.03;6295496;22;20067;-75
2021/04/23 00:58:58;;;;;;;0.35;0.28;;;;;;;6.52;37.36;101436.00;6267281;22;20030;-76
2021/04/23 01:01:35;;;;;;;1.08;0.25;;;;;;;6.74;37.35;101441.97;6237869;22;20012;-78
2021/04/23 01:04:06;;;;;;;0.63;0.30;;;;;;;6.57;37.08;101407.16;6256491;22;20007;-75
2021/04/23 01:06:47;;;;;;;;;;;;;;;;;;;;;
2021/04/23 01:09:29;;;;;;;;;;;;;;;;;;;;;
2021/04/23 01:11:59;;;;;;;1.60;0.30;;;;;;;6.94;37.08;101455.50;6283540;22;20031;-76
2021/04/23 01:21:37;;;;;;;0.10;0.10;;;;;;;6.55;38.25;101446.44;6143362;23;20120;-76
2021/04/23 01:24:06;;;;;;;0.30;0.10;;;;;;;6.36;38.16;101429.97;6263652;22;20080;-75
2021/04/23 01:26:38;;;;;;;0.30;0.30;;;;;;;6.39;38.56;101424.13;6274788;22;20391;-75
2021/04/23 01:29:09;;;;;;;0.35;0.28;;;;;;;6.39;39.13;101421.41;6250582;22;20053;-75
2021/04/23 01:31:53;;;;;;;;;;;;;;;;;;;;;
2021/04/23 01:34:25;;;;;;;1.38;0.45;;;;;;;6.52;39.21;101425.13;6277993;22;20095;-75
2021/04/23 01:36:53;;;;;;;0.10;0.10;;;;;;;6.58;39.08;101441.41;6249692;22;20027;-75
2021/04/23 01:39:36;;;;;;;0.65;0.25;;;;;;;6.58;39.57;101433.25;6278750;22;20449;-75
2021/04/23 01:45:27;;;;;;;0.38;0.20;;;;;;;6.43;39.59;101444.38;6198780;22;20023;-74
2021/04/23 01:51:21;;;;;;;1.25;0.45;;;;;;;6.22;40.78;101414.75;6248685;22;20012;-74
2021/04/23 01:53:47;;;;;;;2.45;0.30;;;;;;;6.18;41.04;101413.53;6250537;22;20082;-74
2021/04/23 01:56:18;;;;;;;0.63;0.20;;;;;;;6.26;41.50;101427.72;6249956;22;20457;-74
2021/04/23 01:58:43;;;;;;;0.80;0.40;;;;;;;6.21;41.57;101430.22;6246892;22;20010;-75
2021/04/23 02:01:09;;;;;;;0.40;0.30;;;;;;;6.31;41.67;101446.09;6240785;22;20007;-76
2021/04/23 02:03:44;;;;;;;1.85;0.43;;;;;;;6.15;42.41;101428.38;6249258;22;20008;-75
2021/04/23 02:08:57;;;;;;;2.17;0.40;;;;;;;6.13;43.82;101445.91;6275906;22;20039;-76
2021/04/23 02:11:23;;;;;;;1.45;0.85;;;;;;;5.82;43.42;101398.53;6249456;22;20027;-76
2021/04/23 02:13:59;;;;;;;2.33;0.63;;;;;;;5.88;45.02;101419.38;6275383;22;20008;-75
2021/04/23 02:16:31;;;;;;;6.35;0.38;;;;;;;5.90;44.62;101409.19;6275852;22;19995;-76
2021/04/23 02:19:10;;;;;;;6.55;0.98;;;;;;;5.87;45.19;101407.72;6268625;22;19996;-75
2021/04/23 02:21:56;;;;;;;;;;;;;;;;;;;;;
2021/04/23 02:24:21;;;;;;;0.73;0.35;;;;;;;5.58;45.34;101403.56;6276987;22;20031;-76
2021/04/23 02:26:57;;;;;;;2.15;0.50;;;;;;;5.62;45.54;101421.06;6248161;22;20003;-75
2021/04/23 02:29:29;;;;;;;4.10;0.52;;;;;;;5.85;45.75;101452.38;6245050;22;20437;-75
2021/04/23 02:32:14;;;;;;;0.50;0.50;;;;;;;5.74;45.80;101446.53;6238670;22;20015;-75
2021/04/23 02:34:47;;;;;;;4.85;0.52;;;;;;;5.66;46.57;101426.91;6242391;22;20030;-75
2021/04/23 02:37:13;;;;;;;1.65;0.50;;;;;;;5.54;47.10;101424.00;6244994;22;20050;-75
2021/04/23 02:39:48;;;;;;;;;;;;;;;;;;;;;
2021/04/23 02:42:14;;;;;;;;;;;;;;;5.67;46.68;101453.03;6267880;22;20499;-74
2021/04/23 02:44:42;;;;;;;3.53;0.68;;;;;;;5.55;47.63;101447.38;6222682;22;19932;-74
2021/04/23 02:47:07;;;;;;;1.50;0.80;;;;;;;5.44;47.94;101426.28;6249933;22;20004;-74
2021/04/23 02:49:35;;;;;;;6.65;0.82;;;;;;;5.47;48.20;101428.59;6277579;22;20011;-74
2021/04/23 02:53:24;;;;;;;;;;;;;;;;;;;;;
2021/04/23 02:55:51;;;;;;;0.93;0.68;;;;;;;5.36;48.33;101430.88;6150752;23;20098;-74
2021/04/23 02:58:31;;;;;;;1.77;0.47;;;;;;;5.26;48.47;101427.72;6228858;22;20426;-75
2021/04/23 03:01:09;;;;;;;3.38;1.00;;;;;;;5.20;49.21;101428.56;6250040;22;20014;-74
2021/04/23 03:03:38;;;;;;;0.63;0.50;;;;;;;5.26;49.94;101433.16;6274484;22;20024;-75
2021/04/23 03:06:05;;;;;;;0.65;0.43;;;;;;;5.26;49.69;101444.00;6244708;22;20008;-74
2021/04/23 03:08:30;;;;;;;1.10;0.52;;;;;;;5.19;50.52;101451.28;6271703;22;20042;-74
2021/04/23 03:11:10;;;;;;;;;;;;;;;;;;;;;
2021/04/23 03:13:46;;;;;;;2.50;0.52;;;;;;;5.12;51.20;101412.47;6280821;22;20023;-75
2021/04/23 03:16:16;;;;;;;0.65;0.52;;;;;;;5.15;49.96;101431.03;6251019;22;20006;-73
2021/04/23 03:18:49;;;;;;;1.00;0.47;;;;;;;5.13;49.93;101422.28;6286665;22;20019;-73
2021/04/23 03:21:26;;;;;;;0.60;0.40;;;;;;;5.31;50.58;101446.91;6251950;22;20012;-73
2021/04/23 03:23:52;;;;;;;0.47;0.43;;;;;;;4.97;50.27;101410.75;6240923;22;20008;-74
2021/04/23 03:26:28;;;;;;;2.85;0.75;;;;;;;4.86;50.55;101403.22;6247679;22;20065;-74
2021/04/23 03:29:04;;;;;;;;;;;;;;;;;;;;;
2021/04/23 03:31:30;;;;;;;1.35;0.40;;;;;;;4.80;51.96;101429.25;6274716;22;20079;-74
2021/04/23 03:33:55;;;;;;;0.82;0.55;;;;;;;4.67;51.78;101408.38;6245892;22;20039;-72
2021/04/23 03:36:23;;;;;;;5.72;1.13;;;;;;;4.69;53.08;101422.56;6250067;22;20098;-73
2021/04/23 03:38:51;;;;;;;5.05;1.20;;;;;;;4.60;53.03;101418.38;6247889;22;20004;-73
2021/04/23 03:41:23;;;;;;;0.77;0.40;;;;;;;4.76;53.24;101438.00;6270202;22;20422;-75
2021/04/23 03:43:49;;;;;;;1.20;0.43;;;;;;;4.80;53.22;101437.38;6275678;22;20011;-73
2021/04/23 03:46:18;;;;;;;2.88;0.77;;;;;;;4.77;52.78;101431.56;6223539;22;20018;-73
2021/04/23 03:48:47;;;;;;;5.75;0.47;;;;;;;4.76;53.15;101427.16;6249031;22;20330;-72
2021/04/23 03:51:21;;;;;;;3.38;0.45;;;;;;;4.80;52.73;101434.69;6276446;22;19996;-73
2021/04/23 03:53:47;;;;;;;1.55;0.50;;;;;;;4.82;52.52;101437.19;6247385;22;20003;-73
2021/04/23 03:56:14;;;;;;;1.05;1.05;;;;;;;4.84;53.28;101430.53;6272096;22;20307;-74
2021/04/23 03:58:43;;;;;;;0.85;0.45;;;;;;;5.00;53.05;101437.47;6225730;22;20438;-73
2021/04/23 04:02:05;;;;;;;;;;;;;;;;;;;;;
2021/04/23 04:04:31;;;;;;;0.75;0.50;;;;;;;4.89;53.28;101429.91;6272667;22;20379;-75
2021/04/23 04:06:59;;;;;;;0.75;0.55;;;;;;;4.75;53.05;101420.09;6276492;22;20014;-74
2021/04/23 04:09:35;;;;;;;;;;;;;;;;;;;;;
2021/04/23 04:12:11;;;;;;;;;;;;;;;;;;;;;
2021/04/23 04:14:57;;;;;;;0.38;0.38;;;;;;;4.81;54.15;101440.94;6275432;22;20075;-74
2021/04/23 04:17:51;;;;;;;0.38;0.38;;;;;;;4.58;53.96;101420.41;6277995;22;19998;-73
2021/04/23 04:20:25;;;;;;;1.73;0.30;;;;;;;4.54;54.30;101435.41;6246602;22;20065;-75
2021/04/23 04:22:57;;;;;;;1.10;0.50;;;;;;;4.63;53.91;101466.72;6277141;22;20421;-76
2021/04/23 04:25:30;;;;;;;3.90;0.47;;;;;;;4.54;54.52;101443.53;6273149;22;20008;-76
2021/04/23 04:28:16;;;;;;;1.35;0.63;;;;;;;4.49;54.78;101448.72;6275351;22;20023;-75
2021/04/23 04:31:03;;;;;;;0.88;0.40;;;;;;;4.54;55.01;101462.50;6254417;22;19999;-75
2021/04/23 04:33:56;;;;;;;;;;;;;;;;;;;;;
2021/04/23 04:36:23;;;;;;;1.90;0.70;;;;;;;4.51;55.64;101462.91;6289869;22;20022;-75
2021/04/23 04:38:48;;;;;;;0.68;0.60;;;;;;;4.34;54.62;101438.84;6266345;22;20329;-75
2021/04/23 04:41:14;;;;;;;0.57;0.52;;;;;;;4.45;55.58;101461.00;6237167;22;20010;-75
2021/04/23 04:43:40;;;;;;;1.77;0.77;;;;;;;4.40;55.20;101464.31;6291884;22;20022;-75
2021/04/23 04:46:09;;;;;;;0.45;0.40;;;;;;;4.54;55.61;101478.75;6255435;22;20011;-74
2021/04/23 04:48:35;;;;;;;7.47;0.50;;;;;;;4.58;55.54;101474.59;6252232;22;20008;-76
2021/04/23 04:51:50;;;;;;;0.73;0.50;;;;;;;4.44;55.77;101462.03;6246204;22;20012;-78
2021/04/23 04:54:38;;;;;;;2.92;0.40;;;;;;;4.49;55.66;101500.19;6270643;22;20003;-75
2021/04/23 04:57:11;;;;;;;1.67;0.30;;;;;;;4.24;55.04;101478.16;6275633;22;20015;-76
2021/04/23 05:03:22;;;;;;;1.17;0.55;;;;;;;3.85;56.51;101469.53;6260642;22;20081;-76
2021/04/23 05:06:18;;;;;;;;;;;;;;;;;;;;;
2021/04/23 05:09:01;;;;;;;0.52;0.43;;;;;;;3.76;56.83;101476.13;6293345;22;19914;-75
2021/04/23 05:11:37;;;;;;;0.82;0.50;;;;;;;3.70;56.30;101466.94;6258020;22;20007;-77
2021/04/23 05:14:10;;;;;;;0.35;0.35;;;;;;;3.61;56.49;101466.22;6222378;22;20368;-75
2021/04/23 05:16:40;;;;;;;0.52;0.35;;;;;;;3.67;56.84;101478.13;6229243;22;20019;-77
2021/04/23 05:19:06;;;;;;;0.45;0.45;;;;;;;3.56;57.20;101460.53;6250561;22;20003;-75
2021/04/23 05:21:39;;;;;;;0.40;0.30;;;;;;;3.54;57.24;101459.91;6243090;22;20010;-76
2021/04/23 05:24:32;;;;;;;;;;;;;;;;;;;;;
2021/04/23 05:27:45;;;;;;;;;;;;;;;;;;;;;
2021/04/23 05:30:07;;;;;;;0.38;0.38;;;;;;;3.55;57.06;101447.22;6271815;22;20074;-76
2021/04/23 05:35:35;;;;;;;0.70;0.50;;;;;;;3.80;57.48;101494.50;6252677;22;20030;-77
2021/04/23 05:38:07;;;;;;;2.58;0.68;;;;;;;3.81;58.33;101484.50;6249149;22;19999;-74
2021/04/23 05:40:58;;;;;;;1.15;0.90;;;;;;;3.78;57.91;101484.88;6279281;22;20079;-78
2021/04/23 05:43:45;;;;;;;0.82;0.82;;;;;;;3.87;59.18;101483.72;6253803;22;20851;-76
2021/04/23 05:46:32;;;;;;;0.60;0.60;;;;;;;3.92;57.99;101492.09;6249323;22;20008;-73
2021/04/23 05:49:22;;;;;;;0.73;0.45;;;;;;;4.09;58.54;101510.72;6272488;22;20004;-75
2021/04/23 05:52:14;;;;;;;0.40;0.40;;;;;;;3.82;58.20;101465.34;6246950;22;20311;-76
2021/04/23 05:54:48;;;;;;;0.60;0.60;;;;;;;3.95;58.21;101486.28;6247092;22;19999;-76
2021/04/23 05:57:19;;;;;;;1.17;1.08;;;;;;;4.19;59.40;101513.94;6246865;22;20422;-75
2021/04/23 05:59:44;;;;;;;1.20;0.95;;;;;;;4.23;59.35;101515.22;6269078;22;20426;-76
2021/04/23 06:02:58;;;;;;;0.98;0.57;;;;;;;4.27;58.67;101521.91;6249321;22;20011;-74
2021/04/23 06:05:01;;;;;;;3.22;1.20;;;;;;;4.21;59.92;101498.34;6234527;22;20541;-78
2021/04/23 06:07:29;;;;;;;5.68;1.02;;;;;;;4.33;59.51;101504.88;6250778;22;20003;-76
2021/04/23 06:10:50;;;;;;;1.50;1.10;;;;;;;4.23;59.13;101477.31;6276596;22;20003;-80
2021/04/23 06:13:54;;;;;;;;;;;;;;;;;;;;;
2021/04/23 06:16:24;;;;;;;0.75;0.75;;;;;;;4.67;58.76;101519.47;6215014;23;20039;-79
2021/04/23 06:19:29;;;;;;;;;;;;;;;;;;;;;
2021/04/23 06:22:06;;;;;;;2.30;0.90;;;;;;;4.71;58.63;101501.75;6287905;22;20008;-75
2021/04/23 06:24:55;;;;;;;4.65;1.63;;;;;;;4.95;58.81;101529.41;6257545;22;20073;-80
2021/04/23 06:27:20;;;;;;;1.73;1.23;;;;;;;4.93;58.57;101507.09;6228201;23;20011;-79
2021/04/23 06:30:10;;;;;;;0.98;0.80;;;;;;;5.05;58.98;101510.91;6255796;22;20079;-77
2021/04/23 06:32:36;;;;;;;1.98;1.13;;;;;;;5.01;59.37;101490.66;6282241;22;20004;-78
2021/04/23 06:35:07;;;;;;;1.38;1.15;;;;;;;5.21;59.05;101506.13;6282649;22;20026;-77
2021/04/23 06:37:32;;;;;;;1.27;1.20;;;;;;;5.32;58.97;101508.25;6254903;22;20000;-77
2021/04/23 06:40:12;;;;;;;3.63;1.60;;;;;;;5.41;59.66;101507.03;6263370;22;20032;-75
2021/04/23 06:42:45;;;;;;;2.40;1.92;;;;;;;5.42;60.33;101487.00;6272154;22;20014;-77
2021/04/23 06:45:19;;;;;;;7.00;2.20;;;;;;;5.52;60.33;101491.19;6295087;22;20015;-78
2021/04/23 06:47:54;;;;;;;2.75;1.92;;;;;;;5.63;59.59;101487.88;6296999;22;20000;-76
2021/04/23 06:50:32;;;;;;;2.25;1.80;;;;;;;5.80;59.86;101498.31;6270990;22;20015;-77
2021/04/23 06:53:12;;;;;;;;;;;;;;;;;;;;;
2021/04/23 06:55:43;;;;;;;5.03;2.38;;;;;;;6.07;59.96;101505.44;6280063;22;20031;-77
2021/04/23 07:01:29;;;;;;;1.42;1.40;;;;;;;6.35;59.01;101507.13;6204699;23;20016;-77
2021/04/23 07:04:02;;;;;;;2.55;1.80;;;;;;;6.51;59.68;101515.84;6221303;23;20030;-77
2021/04/23 07:06:45;;;;;;;3.72;2.53;;;;;;;6.69;59.50;101512.47;6195959;23;20008;-76
2021/04/23 07:09:11;;;;;;;3.42;2.55;;;;;;;6.92;59.48;101539.16;6219427;23;20031;-77
2021/04/23 07:12:04;;;;;;;;;;;;;;;;;;;;;
2021/04/23 07:14:34;;;;;;;3.70;2.58;;;;;;;7.02;59.64;101514.25;6224279;23;20031;-77
2021/04/23 07:17:29;;;;;;;11.52;4.00;;;;;;;7.07;59.71;101512.53;6220527;23;19993;-78
2021/04/23 07:20:04;;;;;;;8.00;4.25;;;;;;;7.32;60.04;101534.38;6222847;23;20009;-78
2021/04/23 07:23:17;;;;;;;5.15;4.13;;;;;;;7.37;59.68;101506.53;6199534;23;20474;-80
2021/04/23 07:26:18;;;;;;;9.00;4.20;;;;;;;7.72;59.36;101538.75;6204012;23;20467;-78
2021/04/23 07:29:14;;;;;;;10.55;4.43;;;;;;;7.92;59.71;101552.25;6212641;23;20027;-79
2021/04/23 07:37:34;;;;;;;6.15;4.05;;;;;;;8.37;59.27;101546.63;6202853;23;20382;-75
2021/04/23 07:40:46;;;;;;;8.68;4.97;;;;;;;8.42;58.93;101540.50;6219837;23;20008;-76
2021/04/23 07:43:31;;;;;;;4.68;4.22;;;;;;;8.54;59.24;101541.47;6198562;23;20064;-75
2021/04/23 07:46:43;;;;;;;4.57;3.72;;;;;;;8.61;58.81;101518.75;6221499;23;20005;-76
2021/04/23 07:55:48;;;;;;;4.57;3.80;;;;;;;9.07;58.11;101528.31;6119345;23;20005;-78
2021/04/23 08:01:55;;;;;;;;;;;;;;;;;;;;;
2021/04/23 08:04:27;;;;;;;5.95;4.28;;;;;;;9.55;56.18;101543.84;6104813;23;20062;-77
2021/04/23 08:06:59;;;;;;;4.88;4.35;;;;;;;9.63;56.50;101530.94;6134420;23;20012;-78
2021/04/23 08:09:50;;;;;;;5.03;4.47;;;;;;;9.69;56.03;101532.72;6195461;23;20071;-76
2021/04/23 08:12:25;;;;;;;6.63;4.57;;;;;;;9.79;55.87;101516.59;6163484;23;20071;-77
2021/04/23 08:15:47;;;;;;;;;;;;;;;;;;;;;
2021/04/23 08:18:53;;;;;;;;;;;;;;;;;;;;;
2021/04/23 08:28:44;;;;;;;6.95;5.15;;;;;;;10.92;54.02;101549.34;6220373;23;20432;-80
2021/04/23 08:31:28;;;;;;;;;;;;;;;;;;;;;
2021/04/23 08:39:48;;;;;;;7.10;4.47;;;;;;;11.51;51.30;101545.59;6182651;23;20041;-79
2021/04/23 08:43:02;;;;;;;;;;;;;;;;;;;;;
2021/04/23 08:46:06;;;;;;;6.30;4.53;;;;;;;11.91;49.81;101527.38;6138136;23;20029;-77
2021/04/23 08:52:39;;;;;;;7.00;4.25;;;;;;;12.47;49.55;101535.69;6208005;23;20015;-77
2021/04/23 09:05:50;;;;;;;12.60;5.05;;;;;;;14.12;42.68;101544.78;6216319;23;20027;-77
2021/04/23 09:08:56;;;;;;;4.85;4.43;;;;;;;14.16;42.50;101539.56;6192346;23;20025;-78
2021/04/23 09:29:09;;;;;;;;;;;;;;;;;;;;;
2021/04/23 09:35:24;;;;;;;2.88;2.25;;;;;;;21.32;33.60;101535.63;6099145;23;20092;-77
2021/04/23 09:42:42;;;;;;;3.70;2.10;;;;;;;23.38;29.08;101537.81;6013699;23;20014;-77
2021/04/23 09:45:56;;;;;;;;;;;;;;;;;;;;;
2021/04/23 09:58:45;;;;;;;3.80;1.77;;;;;;;26.78;22.91;101514.69;6004007;23;20020;-74
2021/04/23 10:02:02;;;;;;;;;;;;;;;;;;;;;
2021/04/23 10:04:41;;;;;;;2.28;1.90;;;;;;;27.76;22.05;101510.06;5960831;23;20116;-79
2021/04/23 10:07:12;;;;;;;2.65;1.85;;;;;;;28.37;20.92;101529.47;6009775;23;20363;-74
2021/04/23 10:09:54;;;;;;;8.23;2.67;;;;;;;28.65;20.37;101534.22;6054935;23;20019;-75
2021/04/23 10:13:21;;;;;;;;;;;;;;;;;;;;;
2021/04/23 10:16:32;;;;;;;2.92;2.08;;;;;;;29.39;18.74;101529.91;6071365;23;20026;-79
2021/04/23 10:19:12;;;;;;;2.03;1.33;;;;;;;29.47;19.54;101508.34;6146356;23;20001;-76
2021/04/23 10:21:57;;;;;;;15.98;2.50;;;;;;;30.08;18.83;101520.84;6185396;23;20008;-77
2021/04/23 10:24:54;;;;;;;;;;;;;;;;;;;;;
2021/04/23 10:27:56;;;;;;;;;;;;;;;;;;;;;
2021/04/23 10:31:01;;;;;;;4.95;1.20;;;;;;;31.28;17.71;101499.06;6202565;23;20005;-80
2021/04/23 10:47:29;;;;;;;3.40;2.23;;;;;;;33.58;14.23;101526.63;6173502;23;20088;-79
2021/04/23 10:50:50;;;;;;;2.25;1.13;;;;;;;33.82;14.78;101530.00;6165464;23;20088;-78
2021/04/23 10:53:27;;;;;;;5.22;2.05;;;;;;;34.32;13.95;101529.31;6189636;23;20009;-81
2021/04/23 10:55:57;;;;;;;1.70;1.33;;;;;;;34.44;14.06;101519.59;6165977;23;20005;-79
2021/04/23 10:58:54;;;;;;;;;;;;;;;;;;;;;
2021/04/23 11:01:17;;;;;;;6.03;1.42;;;;;;;34.94;12.75;101525.28;6186192;23;20086;-79
2021/04/23 11:04:07;;;;;;;;;;;;;;;;;;;;;
2021/04/23 11:07:14;;;;;;;3.22;1.48;;;;;;;35.29;11.61;101522.75;6212331;23;20048;-81
2021/04/23 11:10:20;;;;;;;1.88;1.67;;;;;;;35.72;11.12;101516.06;6176564;23;20016;-80
2021/04/23 11:13:34;;;;;;;3.67;1.17;;;;;;;36.07;11.48;101511.41;6167095;23;20015;-79
2021/04/23 11:16:32;;;;;;;;;;;;;;;;;;;;;
2021/04/23 11:19:42;;;;;;;3.33;1.92;;;;;;;36.42;9.98;101516.06;6221293;23;20012;-79
2021/04/23 11:22:24;;;;;;;2.97;1.65;;;;;;;36.59;10.59;101500.03;6215278;23;20008;-76
2021/04/23 11:25:21;;;;;;;2.13;1.00;;;;;;;36.99;10.23;101511.06;6194170;23;20005;-77
2021/04/23 11:28:07;;;;;;;2.67;1.50;;;;;;;37.19;9.17;101503.53;6221200;23;20000;-76
2021/04/23 11:30:54;;;;;;;1.27;1.05;;;;;;;36.94;9.70;101503.00;6198252;23;20035;-78
2021/04/23 11:34:00;;;;;;;1.63;1.20;;;;;;;37.49;9.95;101498.28;6224083;23;19996;-78
2021/04/23 11:36:38;;;;;;;2.00;1.05;;;;;;;37.71;9.57;101505.31;6108495;23;20053;-78
2021/04/23 11:39:08;;;;;;;2.63;1.60;;;;;;;37.65;8.71;101492.75;6105672;23;20053;-78
2021/04/23 11:41:37;;;;;;;2.40;1.50;;;;;;;37.49;9.03;101492.59;6187993;23;20008;-78
2021/04/23 11:44:41;;;;;;;2.70;1.30;;;;;;;37.32;8.96;101495.22;6223888;23;20039;-79
2021/04/23 11:47:18;;;;;;;1.65;1.33;;;;;;;36.93;8.80;101485.09;6198664;23;20004;-78
2021/04/23 11:49:59;;;;;;;3.03;1.60;;;;;;;37.10;9.24;101479.59;6194307;23;20040;-78
2021/04/23 11:52:31;;;;;;;1.65;1.40;;;;;;;37.32;9.23;101475.25;6200087;23;20012;-78
2021/04/23 11:55:16;;;;;;;;;;;;;;;;;;;;;
2021/04/23 11:57:48;;;;;;;1.45;1.20;;;;;;;38.57;8.76;101456.69;6201602;23;20028;-79
2021/04/23 12:00:22;;;;;;;3.05;1.17;;;;;;;39.09;8.53;101475.28;6201617;23;20012;-78
2021/04/23 12:02:52;;;;;;;1.45;1.20;;;;;;;39.22;7.94;101478.31;6225878;23;20007;-79
2021/04/23 12:05:26;;;;;;;4.35;1.20;;;;;;;38.85;7.84;101471.69;6200440;22;20001;-77
2021/04/23 12:08:05;;;;;;;;;;;;;;;;;;;;;
2021/04/23 12:10:48;;;;;;;2.60;1.50;;;;;;;38.96;7.75;101455.16;6230668;23;20357;-78
2021/04/23 12:13:38;;;;;;;5.00;1.17;;;;;;;39.07;7.85;101467.16;6202816;23;20012;-78
2021/04/23 12:16:14;;;;;;;1.60;1.13;;;;;;;39.22;8.03;101472.59;6198890;23;20020;-74
2021/04/23 12:19:07;;;;;;;3.00;1.42;;;;;;;39.35;7.44;101453.50;6225775;23;19996;-76
2021/04/23 12:21:36;;;;;;;3.70;1.00;;;;;;;39.18;7.28;101443.28;6247602;23;20012;-79
2021/04/23 12:24:01;;;;;;;2.88;1.42;;;;;;;39.00;7.53;101449.34;6251686;23;20058;-77
2021/04/23 12:26:33;;;;;;;3.08;1.25;;;;;;;39.19;7.77;101428.53;6219053;23;20308;-75
2021/04/23 12:29:02;;;;;;;5.57;0.82;;;;;;;39.61;7.33;101446.00;6250318;23;20000;-78
2021/04/23 12:32:01;;;;;;;4.68;0.88;;;;;;;39.93;7.08;101435.84;6219995;23;20096;-75
2021/04/23 12:34:21;;;;;;;1.52;1.08;;;;;;;40.07;6.70;101451.09;6245907;22;20004;-76
2021/04/23 12:37:09;;;;;;;1.40;0.60;;;;;;;40.16;7.06;101453.31;6250085;23;20007;-76
2021/04/23 12:57:59;;;;;;;5.05;0.47;;;;;;;41.64;5.63;101432.78;5900851;24;20110;-78
2021/04/23 13:00:55;;;;;;;1.55;0.82;;;;;;;41.93;5.58;101426.13;5925894;24;20461;-77
2021/04/23 13:03:58;;;;;;;1.55;0.98;;;;;;;42.21;5.50;101428.03;5953677;24;20013;-80
2021/04/23 13:06:34;;;;;;;;;;;;;;;;;;;;;
2021/04/23 13:12:58;;;;;;;1.27;0.82;;;;;;;43.24;4.17;101424.72;5998949;23;20015;-82
2021/04/23 13:15:40;;;;;;;;;;;;;;;;;;;;;
2021/04/23 13:21:42;;;;;;;0.52;0.40;;;;;;;42.37;4.92;101400.41;6018953;23;20096;-79
2021/04/23 13:24:45;;;;;;;0.80;0.60;;;;;;;42.83;4.69;101415.16;6139742;23;20005;-79
2021/04/23 13:27:58;;;;;;;1.33;0.88;;;;;;;42.25;4.61;101401.22;6163226;23;20001;-77
2021/04/23 13:41:12;;;;;;;0.93;0.40;;;;;;;42.34;3.36;101404.22;6077871;23;20018;-79
2021/04/23 13:43:56;;;;;;;;;;;;;;;;;;;;;
2021/04/23 13:46:55;;;;;;;0.30;0.30;;;;;;;42.23;2.80;101398.81;6073990;23;20431;-79
2021/04/23 13:49:34;;;;;;;0.10;0.10;;;;;;;42.78;2.85;101397.72;6082422;23;20260;-78
2021/04/23 13:52:40;;;;;;;0.47;0.20;;;;;;;42.74;2.35;101394.97;6083365;23;20010;-77
2021/04/23 13:55:23;;;;;;;0.60;0.30;;;;;;;41.91;1.74;101388.44;6152049;23;20008;-79
2021/04/23 13:58:06;;;;;;;4.68;0.35;;;;;;;41.32;2.17;101405.88;6172855;23;20009;-78
2021/04/23 14:04:16;;;;;;;;;;;;;;;;;;;;;
2021/04/23 14:06:55;;;;;;;0.50;0.30;;;;;;;40.40;2.52;101394.56;6189511;23;20055;-79
2021/04/23 14:09:48;;;;;;;0.50;0.40;;;;;;;40.41;2.90;101383.91;6186638;23;20125;-77
2021/04/23 14:12:30;;;;;;;;;;;;;;;;;;;;;
2021/04/23 14:15:08;;;;;;;0.45;0.30;;;;;;;40.59;2.91;101381.38;6188780;23;20043;-78
2021/04/23 14:17:41;;;;;;;1.60;0.30;;;;;;;40.33;3.17;101368.97;6163033;23;20089;-78
2021/04/23 14:20:39;;;;;;;0.38;0.30;;;;;;;40.79;3.23;101369.75;6187888;23;20506;-79
2021/04/23 14:23:08;;;;;;;0.73;0.40;;;;;;;40.80;2.88;101370.53;6186105;23;20020;-79
2021/04/23 14:25:54;;;;;;;;;;;;;;;;;;;;;
2021/04/23 14:28:31;;;;;;;1.38;0.20;;;;;;;41.47;3.27;101363.19;6188749;23;20029;-79
2021/04/23 14:31:26;;;;;;;0.47;0.28;;;;;;;41.48;2.93;101371.34;6164760;23;20005;-80
2021/04/23 14:33:57;;;;;;;0.50;0.30;;;;;;;41.50;3.20;101363.09;6149605;23;20005;-75
2021/04/23 14:43:01;;;;;;;1.55;0.32;;;;;;;39.76;3.07;101352.03;6065675;23;20062;-77
2021/04/23 14:45:45;;;;;;;0.65;0.30;;;;;;;39.41;3.19;101365.94;6050316;23;20414;-76
2021/04/23 14:48:47;;;;;;;5.25;0.28;;;;;;;39.09;3.46;101344.59;6053075;23;20155;-77
2021/04/23 14:51:32;;;;;;;0.40;0.25;;;;;;;38.35;3.97;101348.53;6080328;23;20042;-80
2021/04/23 14:56:52;;;;;;;0.20;0.13;;;;;;;37.70;4.06;101320.28;6066607;23;20416;-76
2021/04/23 15:00:01;;;;;;;2.05;0.20;;;;;;;38.31;4.17;101347.78;6195203;23;20301;-81
2021/04/23 15:02:29;;;;;;;0.20;0.20;;;;;;;38.65;3.88;101332.41;6210189;23;20019;-75
2021/04/23 15:05:02;;;;;;;0.30;0.20;;;;;;;38.98;3.53;101344.00;6223592;23;19997;-78
2021/04/23 15:07:50;;;;;;;0.93;0.70;;;;;;;38.56;3.30;101329.34;6202746;23;20020;-79
2021/04/23 15:10:56;;;;;;;0.90;0.25;;;;;;;38.40;4.04;101316.59;6202538;23;20031;-76
2021/04/23 15:13:27;;;;;;;1.45;0.30;;;;;;;38.09;3.54;101335.16;6181560;23;20035;-79
2021/04/23 15:15:58;;;;;;;0.38;0.25;;;;;;;37.98;4.54;101330.44;6203793;23;20001;-78
2021/04/23 15:18:31;;;;;;;7.10;0.47;;;;;;;38.21;4.24;101340.25;6222763;23;19997;-77
2021/04/23 15:21:07;;;;;;;;;;;;;;;;;;;;;
2021/04/23 15:23:40;;;;;;;1.13;0.30;;;;;;;36.67;4.08;101342.06;6231334;23;20011;-80
2021/04/23 15:26:06;;;;;;;0.20;0.20;;;;;;;36.38;4.71;101313.13;6206485;23;20004;-78
2021/04/23 15:28:44;;;;;;;;;;;;;;;;;;;;;
2021/04/23 15:31:19;;;;;;;0.70;0.55;;;;;;;35.02;4.51;101314.97;6234760;23;20008;-77
2021/04/23 15:33:57;;;;;;;;;;;;;;;;;;;;;
2021/04/23 15:36:35;;;;;;;0.60;0.20;;;;;;;34.29;5.00;101327.78;6210273;23;20015;-82
2021/04/23 15:42:18;;;;;;;0.50;0.47;;;;;;;34.91;5.22;101344.22;6199394;23;20008;-78
2021/04/23 15:44:47;;;;;;;0.50;0.50;;;;;;;34.56;4.47;101343.13;6234183;23;20012;-77
2021/04/23 15:47:38;;;;;;;0.88;0.50;;;;;;;34.21;5.01;101307.91;6232916;23;20000;-81
2021/04/23 15:50:11;;;;;;;6.13;0.60;;;;;;;34.44;4.54;101315.97;6228010;23;20055;-78
2021/04/23 15:52:47;;;;;;;;;;;;;;;;;;;;;
2021/04/23 15:55:16;;;;;;;5.63;0.50;;;;;;;34.96;4.28;101323.13;6229529;23;20032;-80
2021/04/23 15:57:50;;;;;;;2.88;0.50;;;;;;;34.47;4.41;101319.25;6230045;23;20005;-83
2021/04/23 16:00:36;;;;;;;0.68;0.30;;;;;;;34.35;4.78;101323.31;6232053;23;20004;-81
2021/04/23 16:03:18;;;;;;;0.65;0.50;;;;;;;34.08;4.79;101337.91;6205150;23;20063;-77
2021/04/23 16:05:47;;;;;;;2.15;0.60;;;;;;;33.87;4.94;101328.22;6222690;23;20000;-76
2021/04/23 16:08:12;;;;;;;2.65;0.98;;;;;;;34.00;5.23;101319.31;6195402;23;20047;-79
2021/04/23 16:10:46;;;;;;;2.47;0.63;;;;;;;34.34;4.85;101305.47;6195851;23;20415;-76
2021/04/23 16:13:11;;;;;;;0.85;0.55;;;;;;;34.36;4.51;101302.22;6194851;23;20016;-77
2021/04/23 16:16:04;;;;;;;0.93;0.32;;;;;;;34.74;4.53;101328.03;6225213;23;20000;-78
2021/04/23 16:18:37;;;;;;;0.65;0.30;;;;;;;34.61;4.62;101305.78;6198065;23;20009;-77
2021/04/23 16:21:21;;;;;;;0.45;0.40;;;;;;;34.49;4.70;101297.75;6196036;23;20005;-78
2021/04/23 16:23:54;;;;;;;1.08;0.60;;;;;;;33.81;4.87;101307.16;6196371;23;20023;-78
2021/04/23 16:26:55;;;;;;;2.78;0.60;;;;;;;33.06;4.81;101302.94;6224871;23;20000;-78
2021/04/23 16:29:41;;;;;;;;;;;;;;;;;;;;;
2021/04/23 16:32:17;;;;;;;0.40;0.38;;;;;;;32.46;5.25;101292.16;6222343;23;20039;-75
2021/04/23 16:34:43;;;;;;;0.50;0.50;;;;;;;32.42;5.66;101297.81;6222062;23;20008;-77
2021/04/23 16:37:16;;;;;;;2.55;0.40;;;;;;;32.29;5.73;101288.84;6221600;23;20084;-75
2021/04/23 16:39:42;;;;;;;0.50;0.40;;;;;;;31.92;5.77;101286.97;6195840;23;20443;-75
2021/04/23 16:42:16;;;;;;;2.03;0.50;;;;;;;31.59;5.71;101294.34;6199717;23;20083;-77
2021/04/23 16:45:20;;;;;;;;;;;;;;;;;;;;;